TA02 weather

Howard Field
Rhome, Texas, United States

Public forecast

Using degrees Fahrenheit for public forecast. Weather courtesy of forecast.io.

Closest aviation weather report (METAR) to Howard Field

Closest report is Fort Worth Alliance Airport, 10.1 nm (18.7 km) SE. Retrieved 2019/10/23 18:53 UTC (1 hour ago):

KAFW 231853Z 19022G27KT 10SM FEW040 26/11 A2996 RMK AO2 PK WND 18030/1756 SLP138 T02610111

Closest aviation forecast (TAF) to Howard Field

Closest forecast is Fort Worth Alliance Airport, 10.1 nm (18.7 km) SE. Retrieved 2019/10/23 18:33 UTC (1 hour ago):

TAF KAFW 231730Z 2318/2418 18016G26KT P6SM SKC FM240000 16014KT P6SM SCT250 FM241400 16012KT P6SM VCSH BKN018